Time;durP1;ratioP1;P1;durP2;ratioP2;P2;SDS_P1;SDS_P2;PMS_P1;PMS_P2;Temp;Humidity;BMP_temperature;BMP_pressure;BME280_temperature;BME280_humidity;BME280_pressure;Samples;Min_cycle;Max_cycle;Signal;HPM_P1;HPM_P2
2022/10/28 00:00:21;;;;;;;6.80;4.40;;;16.50;99.90;;;;;;5012315;28;20052;-73
2022/10/28 00:02:47;;;;;;;7.22;4.20;;;16.50;99.90;;;;;;5011272;28;20112;-74
2022/10/28 00:05:13;;;;;;;7.82;4.65;;;16.50;99.90;;;;;;5011724;28;20054;-75
2022/10/28 00:07:38;;;;;;;8.05;4.32;;;16.40;99.90;;;;;;5011877;28;20057;-74
2022/10/28 00:10:04;;;;;;;8.73;5.05;;;16.40;99.90;;;;;;4990771;28;20050;-74
2022/10/28 00:12:35;;;;;;;9.55;4.80;;;16.40;99.90;;;;;;5006537;28;20041;-73
2022/10/28 00:15:01;;;;;;;8.18;5.30;;;16.40;99.90;;;;;;5011457;28;20498;-73
2022/10/28 00:17:26;;;;;;;8.20;4.88;;;16.30;99.90;;;;;;5011768;28;20045;-73
2022/10/28 00:19:52;;;;;;;9.75;5.22;;;16.20;99.90;;;;;;5012235;28;20053;-74
2022/10/28 00:22:18;;;;;;;7.35;5.00;;;16.10;99.90;;;;;;4994224;28;20044;-73
2022/10/28 00:24:43;;;;;;;7.47;4.70;;;16.10;99.90;;;;;;5011300;28;20077;-74
2022/10/28 00:27:09;;;;;;;7.20;4.38;;;16.10;99.90;;;;;;5010585;28;20477;-74
2022/10/28 00:29:34;;;;;;;8.57;5.10;;;16.00;99.90;;;;;;5011792;28;20481;-73
2022/10/28 00:32:00;;;;;;;8.25;4.53;;;16.00;99.90;;;;;;5011332;28;20455;-74
2022/10/28 00:34:26;;;;;;;8.90;5.07;;;16.00;99.90;;;;;;5010454;28;20537;-73
2022/10/28 00:36:51;;;;;;;9.50;4.75;;;15.90;99.90;;;;;;5011073;28;20096;-73
2022/10/28 00:39:19;;;;;;;6.25;4.53;;;15.80;99.90;;;;;;5011208;28;20067;-73
2022/10/28 00:41:54;;;;;;;8.73;4.78;;;15.80;99.90;;;;;;5011010;28;20077;-73
2022/10/28 00:44:41;;;;;;;7.30;4.22;;;15.80;99.90;;;;;;4994115;28;20062;-73
2022/10/28 00:47:35;;;;;;;7.07;4.40;;;15.80;99.90;;;;;;4999582;28;20101;-73
2022/10/28 00:50:15;;;;;;;8.60;4.68;;;15.80;99.90;;;;;;5011356;28;20081;-73
2022/10/28 00:52:44;;;;;;;8.50;4.55;;;15.80;99.90;;;;;;5011165;28;20040;-73
2022/10/28 00:55:11;;;;;;;6.72;4.40;;;15.80;99.90;;;;;;5011193;28;20085;-73
2022/10/28 00:57:39;;;;;;;11.82;4.80;;;15.80;99.90;;;;;;5011424;28;20085;-73
2022/10/28 01:00:06;;;;;;;8.80;4.72;;;15.90;99.90;;;;;;5010019;28;20549;-73
2022/10/28 01:02:40;;;;;;;7.35;4.53;;;15.90;99.90;;;;;;5008288;28;20073;-73
2022/10/28 01:05:06;;;;;;;7.88;4.40;;;15.90;99.90;;;;;;5008677;28;20066;-73
2022/10/28 01:07:32;;;;;;;5.53;3.50;;;15.90;99.90;;;;;;5009463;28;20042;-73
2022/10/28 01:09:58;;;;;;;8.82;4.38;;;15.90;99.90;;;;;;4990141;28;20061;-73
2022/10/28 01:12:40;;;;;;;8.68;4.30;;;15.80;99.90;;;;;;5009519;28;20056;-72
2022/10/28 01:15:11;;;;;;;7.22;3.72;;;15.80;99.90;;;;;;5011466;28;20054;-72
2022/10/28 01:17:39;;;;;;;7.85;3.58;;;15.70;99.90;;;;;;5011123;28;20455;-74
2022/10/28 01:20:25;;;;;;;5.95;4.00;;;15.70;99.90;;;;;;5011140;28;20041;-72
2022/10/28 01:23:12;;;;;;;7.63;4.32;;;15.70;99.90;;;;;;4979829;28;20137;-74
2022/10/28 01:25:59;;;;;;;9.68;4.45;;;15.70;99.90;;;;;;4999053;28;20509;-74
2022/10/28 01:29:00;;;;;;;7.40;4.30;;;15.70;99.90;;;;;;5007514;28;20050;-73
2022/10/28 01:31:35;;;;;;;9.20;4.35;;;15.70;99.90;;;;;;5011027;28;20038;-73
2022/10/28 01:34:03;;;;;;;8.23;4.47;;;15.70;99.90;;;;;;5010828;28;20427;-73
2022/10/28 01:36:45;;;;;;;8.80;4.30;;;15.80;99.90;;;;;;5010845;28;20104;-73
2022/10/28 01:39:29;;;;;;;6.43;4.20;;;15.80;99.90;;;;;;5010649;28;20057;-73
2022/10/28 01:42:03;;;;;;;6.93;4.25;;;15.80;99.90;;;;;;5011188;28;20046;-74
2022/10/28 01:44:40;;;;;;;7.68;4.25;;;15.80;99.90;;;;;;4990470;28;20051;-73
2022/10/28 01:47:18;;;;;;;6.70;4.80;;;15.80;99.90;;;;;;5006055;28;20037;-72
2022/10/28 01:49:54;;;;;;;8.38;4.85;;;15.80;99.90;;;;;;5010556;28;20125;-72
2022/10/28 01:52:24;;;;;;;10.80;4.63;;;15.80;99.90;;;;;;5010770;28;20052;-72
2022/10/28 01:54:56;;;;;;;8.77;4.55;;;15.80;99.90;;;;;;5010955;28;20092;-73
2022/10/28 01:57:24;;;;;;;7.20;3.83;;;15.80;99.90;;;;;;5009172;28;20100;-72
2022/10/28 01:59:51;;;;;;;6.35;4.22;;;15.80;99.90;;;;;;5005976;28;20045;-73
2022/10/28 02:02:17;;;;;;;6.53;4.35;;;15.80;99.90;;;;;;5010619;28;20046;-72
2022/10/28 02:04:42;;;;;;;7.65;4.53;;;15.80;99.90;;;;;;5010514;28;20126;-73
2022/10/28 02:07:08;;;;;;;7.00;4.30;;;15.80;99.90;;;;;;5010552;28;20125;-73
2022/10/28 02:09:54;;;;;;;7.20;4.70;;;15.80;99.90;;;;;;5010289;28;20048;-73
2022/10/28 02:12:32;;;;;;;9.38;4.80;;;15.80;99.90;;;;;;4993379;28;20080;-73
2022/10/28 02:15:00;;;;;;;8.10;4.28;;;15.80;99.90;;;;;;5015798;28;20041;-73
2022/10/28 02:17:38;;;;;;;5.78;3.75;;;15.80;99.90;;;;;;5013906;28;20038;-73
2022/10/28 02:20:13;;;;;;;8.40;4.68;;;15.80;99.90;;;;;;5014202;28;20050;-73
2022/10/28 02:22:50;;;;;;;10.17;4.60;;;15.80;99.90;;;;;;5013851;28;20049;-73
2022/10/28 02:25:23;;;;;;;7.65;4.22;;;15.70;99.90;;;;;;5014147;28;20046;-73
2022/10/28 02:27:52;;;;;;;7.60;4.15;;;15.70;99.90;;;;;;5014271;28;20085;-73
2022/10/28 02:30:31;;;;;;;7.90;4.30;;;15.70;99.90;;;;;;5013757;28;20363;-73
2022/10/28 02:33:00;;;;;;;6.07;4.25;;;15.70;99.90;;;;;;5013843;28;20048;-73
2022/10/28 02:35:46;;;;;;;7.50;4.38;;;15.70;99.90;;;;;;5013527;28;20081;-72
2022/10/28 02:38:18;;;;;;;7.82;4.35;;;15.70;99.90;;;;;;4993630;28;20050;-73
2022/10/28 02:40:50;;;;;;;7.43;4.55;;;15.70;99.90;;;;;;5010675;28;20049;-72
2022/10/28 02:43:18;;;;;;;8.30;4.40;;;15.60;99.90;;;;;;5013769;28;20038;-72
2022/10/28 02:45:49;;;;;;;6.97;4.20;;;15.70;99.90;;;;;;5013809;28;20128;-72
2022/10/28 02:48:20;;;;;;;7.30;4.70;;;15.70;99.90;;;;;;4996025;28;20546;-72
2022/10/28 02:50:53;;;;;;;8.02;4.15;;;15.60;99.90;;;;;;5013540;28;20116;-73
2022/10/28 02:53:25;;;;;;;6.15;3.78;;;15.60;99.90;;;;;;5013664;28;20038;-72
2022/10/28 02:55:53;;;;;;;7.30;4.28;;;15.60;99.90;;;;;;5013070;28;20045;-73
2022/10/28 02:58:20;;;;;;;7.18;3.90;;;15.50;99.90;;;;;;5013313;28;20052;-72
2022/10/28 03:00:46;;;;;;;7.18;4.05;;;15.50;99.90;;;;;;5013358;28;20126;-72
2022/10/28 03:03:13;;;;;;;7.15;4.10;;;15.40;99.90;;;;;;5012989;28;20117;-72
2022/10/28 03:05:38;;;;;;;5.80;3.67;;;15.40;99.90;;;;;;5013235;28;20542;-73
2022/10/28 03:08:04;;;;;;;6.68;4.25;;;15.30;99.90;;;;;;5013229;28;20116;-72
2022/10/28 03:10:30;;;;;;;7.20;3.75;;;15.20;99.90;;;;;;5012812;28;20053;-72
2022/10/28 03:12:55;;;;;;;5.63;3.85;;;15.20;99.90;;;;;;5012723;28;20038;-73
2022/10/28 03:15:21;;;;;;;6.53;3.67;;;15.10;99.90;;;;;;5027875;28;20075;-72
2022/10/28 03:17:47;;;;;;;5.57;3.75;;;15.10;99.90;;;;;;5014860;28;20038;-72
2022/10/28 03:20:12;;;;;;;6.57;4.05;;;15.10;99.90;;;;;;5011805;28;20046;-73
2022/10/28 03:22:38;;;;;;;7.45;4.20;;;15.00;99.90;;;;;;5012938;28;20136;-73
2022/10/28 03:25:04;;;;;;;7.20;3.90;;;15.00;99.90;;;;;;4993826;28;20536;-73
2022/10/28 03:27:30;;;;;;;6.25;3.60;;;15.00;99.90;;;;;;5010330;28;20164;-73
2022/10/28 03:29:56;;;;;;;8.88;4.13;;;14.80;99.90;;;;;;5010124;28;20113;-73
2022/10/28 03:32:21;;;;;;;6.60;3.28;;;14.70;99.90;;;;;;5010170;28;20459;-73
2022/10/28 03:34:47;;;;;;;7.55;4.05;;;14.60;99.90;;;;;;5010244;28;20498;-73
2022/10/28 03:37:13;;;;;;;5.50;4.43;;;14.60;99.90;;;;;;5012823;28;20046;-73
2022/10/28 03:39:38;;;;;;;7.78;4.07;;;14.50;99.90;;;;;;4993473;28;20042;-73
2022/10/28 03:42:04;;;;;;;6.88;4.18;;;14.50;99.90;;;;;;5012764;28;20040;-73
2022/10/28 03:44:30;;;;;;;5.38;4.10;;;14.50;99.90;;;;;;5012295;28;20091;-73
2022/10/28 03:46:55;;;;;;;7.28;4.57;;;14.50;99.90;;;;;;5010986;28;20608;-72
2022/10/28 03:49:21;;;;;;;6.47;4.10;;;14.40;99.90;;;;;;5012582;28;20077;-72
2022/10/28 03:51:47;;;;;;;7.28;3.80;;;14.40;99.90;;;;;;5012418;28;20096;-73
2022/10/28 03:54:12;;;;;;;9.38;4.75;;;14.40;99.90;;;;;;5012474;28;20058;-73
2022/10/28 03:56:39;;;;;;;10.43;4.65;;;14.50;99.90;;;;;;5012330;28;20501;-72
2022/10/28 03:59:07;;;;;;;6.13;4.00;;;14.40;99.90;;;;;;5012429;28;20376;-73
2022/10/28 04:01:33;;;;;;;7.15;3.72;;;14.50;99.90;;;;;;5011816;28;20434;-72
2022/10/28 04:03:59;;;;;;;11.02;4.60;;;14.50;99.90;;;;;;4994801;28;20042;-72
2022/10/28 04:06:24;;;;;;;6.05;4.00;;;14.50;99.90;;;;;;5012215;28;20041;-72
2022/10/28 04:08:50;;;;;;;8.25;4.75;;;14.60;99.90;;;;;;5011839;28;20045;-72
2022/10/28 04:11:15;;;;;;;8.38;4.88;;;14.50;99.90;;;;;;5014751;28;20041;-73
2022/10/28 04:13:41;;;;;;;8.05;3.90;;;14.60;99.90;;;;;;5016348;28;20316;-72
2022/10/28 04:16:07;;;;;;;9.90;4.72;;;14.60;99.90;;;;;;5027763;28;20089;-73
2022/10/28 04:18:34;;;;;;;6.30;4.15;;;14.60;99.90;;;;;;5012014;28;20049;-72
2022/10/28 04:21:00;;;;;;;6.35;4.38;;;14.60;99.90;;;;;;5011912;28;20052;-72
2022/10/28 04:23:26;;;;;;;7.22;4.18;;;14.60;99.90;;;;;;4994226;28;20386;-73
2022/10/28 04:25:53;;;;;;;9.50;4.70;;;14.60;99.90;;;;;;5011909;28;20056;-73
2022/10/28 04:28:20;;;;;;;7.35;4.25;;;14.60;99.90;;;;;;5012045;28;20042;-72
2022/10/28 04:30:47;;;;;;;6.78;4.00;;;14.70;99.90;;;;;;4971116;28;20058;-72
2022/10/28 04:33:12;;;;;;;6.65;4.53;;;14.70;99.90;;;;;;5014823;28;20026;-72
2022/10/28 04:35:41;;;;;;;8.48;4.25;;;14.70;99.90;;;;;;5013776;28;20058;-72
2022/10/28 04:38:10;;;;;;;8.05;4.68;;;14.70;99.90;;;;;;5015067;28;20475;-72
2022/10/28 04:40:36;;;;;;;7.10;4.00;;;14.80;99.90;;;;;;4993878;28;20049;-74
2022/10/28 04:43:02;;;;;;;8.57;4.30;;;14.80;99.90;;;;;;5011441;28;20033;-72
2022/10/28 04:45:27;;;;;;;5.15;3.65;;;14.90;99.90;;;;;;5011675;28;20076;-73
2022/10/28 04:47:57;;;;;;;8.43;4.32;;;14.80;99.90;;;;;;5011196;28;20046;-72
2022/10/28 04:50:23;;;;;;;8.13;4.57;;;14.80;99.90;;;;;;5015869;28;20537;-72
2022/10/28 04:52:48;;;;;;;8.60;4.63;;;14.90;99.90;;;;;;4993906;28;20053;-72
2022/10/28 04:55:14;;;;;;;7.90;4.50;;;14.80;99.90;;;;;;5011391;28;20125;-72
2022/10/28 04:57:40;;;;;;;7.85;4.43;;;14.80;99.90;;;;;;5011678;28;20041;-73
2022/10/28 05:00:06;;;;;;;6.95;4.38;;;14.80;99.90;;;;;;5011242;28;20038;-72
2022/10/28 05:02:31;;;;;;;7.43;4.72;;;14.80;99.90;;;;;;5010891;28;20069;-72
2022/10/28 05:05:01;;;;;;;5.93;3.95;;;14.80;99.90;;;;;;4993805;28;20501;-72
2022/10/28 05:07:26;;;;;;;6.53;3.70;;;14.70;99.90;;;;;;4996421;28;20057;-73
2022/10/28 05:09:52;;;;;;;5.57;3.60;;;14.60;99.90;;;;;;5009389;28;20034;-72
2022/10/28 05:12:18;;;;;;;5.75;4.10;;;14.50;99.90;;;;;;5010968;28;20434;-73
2022/10/28 05:14:43;;;;;;;6.63;3.70;;;14.40;99.90;;;;;;5011122;28;20447;-72
2022/10/28 05:17:10;;;;;;;8.07;3.90;;;14.30;99.90;;;;;;5010914;28;20077;-72
2022/10/28 05:19:36;;;;;;;9.35;4.38;;;14.30;99.90;;;;;;5010780;28;20045;-72
2022/10/28 05:22:01;;;;;;;6.13;4.43;;;14.20;99.90;;;;;;5011266;28;20050;-72
2022/10/28 05:24:27;;;;;;;8.60;4.55;;;14.10;99.90;;;;;;5010795;28;20524;-72
2022/10/28 05:26:53;;;;;;;6.32;4.07;;;14.00;99.90;;;;;;5010649;28;20053;-73
2022/10/28 05:29:19;;;;;;;6.72;4.38;;;14.00;99.90;;;;;;5011206;28;20053;-73
2022/10/28 05:31:45;;;;;;;9.38;4.25;;;13.90;99.90;;;;;;4993355;28;20164;-72
2022/10/28 05:34:11;;;;;;;6.60;3.78;;;13.90;99.90;;;;;;5010436;28;20042;-72
2022/10/28 05:36:37;;;;;;;8.48;4.20;;;13.90;99.90;;;;;;5010400;28;20389;-72
2022/10/28 05:39:03;;;;;;;8.02;4.60;;;13.90;99.90;;;;;;5010455;28;20056;-72
2022/10/28 05:41:29;;;;;;;7.47;4.05;;;13.80;99.90;;;;;;5010766;28;20401;-72
2022/10/28 05:43:55;;;;;;;6.68;4.28;;;13.80;99.90;;;;;;5010759;28;20046;-73
2022/10/28 05:46:21;;;;;;;6.43;4.38;;;13.80;99.90;;;;;;4976760;28;20038;-72
2022/10/28 05:48:47;;;;;;;7.20;4.10;;;13.70;99.90;;;;;;5010761;28;20038;-72
2022/10/28 05:51:13;;;;;;;8.15;4.78;;;13.70;99.90;;;;;;5022966;28;20045;-72
2022/10/28 05:53:40;;;;;;;9.77;4.50;;;13.70;99.90;;;;;;5018873;28;20121;-73
2022/10/28 05:56:07;;;;;;;8.68;4.40;;;13.70;99.90;;;;;;4997095;28;20085;-72
2022/10/28 05:58:33;;;;;;;6.55;4.25;;;13.70;99.90;;;;;;5016403;28;20528;-72
2022/10/28 06:00:59;;;;;;;6.93;4.43;;;13.70;99.90;;;;;;5014580;28;20081;-72
2022/10/28 06:03:24;;;;;;;7.75;4.28;;;13.70;99.90;;;;;;4996391;28;20033;-72
2022/10/28 06:05:50;;;;;;;6.43;4.28;;;13.60;99.90;;;;;;5012936;28;20053;-73
2022/10/28 06:08:16;;;;;;;5.32;4.07;;;13.60;99.90;;;;;;5014628;28;20065;-72
2022/10/28 06:10:49;;;;;;;8.20;4.40;;;13.50;99.90;;;;;;5013556;28;20037;-72
2022/10/28 06:13:15;;;;;;;8.90;4.13;;;13.50;99.90;;;;;;5014337;28;20117;-72
2022/10/28 06:15:41;;;;;;;8.80;4.25;;;13.50;99.90;;;;;;5018286;28;20124;-66
2022/10/28 06:18:06;;;;;;;9.10;4.78;;;13.50;99.90;;;;;;5012142;28;20382;-65
2022/10/28 06:20:32;;;;;;;10.02;4.85;;;13.50;99.90;;;;;;5014067;28;20542;-65
2022/10/28 06:22:58;;;;;;;7.38;4.43;;;13.60;99.90;;;;;;5021678;28;20045;-65
2022/10/28 06:25:25;;;;;;;10.02;4.65;;;13.60;99.90;;;;;;5013861;28;20061;-65
2022/10/28 06:27:58;;;;;;;7.15;4.47;;;13.70;99.90;;;;;;5013867;28;20049;-65
2022/10/28 06:30:26;;;;;;;8.93;4.45;;;13.80;99.90;;;;;;5013331;28;20485;-65
2022/10/28 06:32:52;;;;;;;9.90;4.40;;;13.80;99.90;;;;;;5013359;28;20425;-65
2022/10/28 06:35:18;;;;;;;6.95;4.22;;;13.80;99.90;;;;;;5013218;28;20072;-65
2022/10/28 06:37:44;;;;;;;8.73;4.70;;;13.90;99.90;;;;;;5013893;28;20056;-65
2022/10/28 06:40:10;;;;;;;7.32;4.25;;;13.90;99.90;;;;;;5012817;28;20045;-66
2022/10/28 06:42:35;;;;;;;10.25;4.70;;;14.00;99.90;;;;;;5013698;28;20052;-66
2022/10/28 06:45:01;;;;;;;11.90;5.20;;;14.00;99.90;;;;;;5013679;28;20034;-66
2022/10/28 06:47:27;;;;;;;8.90;4.40;;;14.00;99.90;;;;;;5013142;28;20084;-66
2022/10/28 06:49:52;;;;;;;7.97;4.78;;;14.10;99.90;;;;;;5012994;28;20045;-66
2022/10/28 06:52:18;;;;;;;5.93;4.80;;;14.10;99.90;;;;;;5012614;28;20034;-66
2022/10/28 06:54:44;;;;;;;8.25;4.97;;;14.20;99.90;;;;;;5013107;28;20053;-66
2022/10/28 06:57:10;;;;;;;9.27;4.65;;;14.20;99.90;;;;;;4998082;28;20046;-66
2022/10/28 06:59:35;;;;;;;8.95;4.60;;;14.20;99.90;;;;;;4992801;28;20046;-66
2022/10/28 07:02:02;;;;;;;6.97;5.13;;;14.20;99.90;;;;;;5012400;28;20042;-65
2022/10/28 07:04:27;;;;;;;10.70;4.97;;;14.30;99.90;;;;;;5013193;28;20042;-66
2022/10/28 07:06:54;;;;;;;8.07;4.97;;;14.30;99.90;;;;;;5013209;28;20605;-66
2022/10/28 07:09:20;;;;;;;7.78;4.80;;;14.40;99.90;;;;;;5012573;28;20143;-66
2022/10/28 07:11:49;;;;;;;9.55;4.50;;;14.50;99.90;;;;;;4995822;28;20077;-65
2022/10/28 07:14:15;;;;;;;8.57;5.28;;;14.50;99.90;;;;;;5022081;28;20045;-66
2022/10/28 07:16:41;;;;;;;6.75;4.35;;;14.60;99.90;;;;;;4999318;28;20496;-66
2022/10/28 07:19:07;;;;;;;10.18;4.85;;;14.60;99.90;;;;;;5021498;28;20042;-66
2022/10/28 07:21:33;;;;;;;7.07;4.70;;;14.60;99.90;;;;;;5013854;28;20387;-66
2022/10/28 07:23:59;;;;;;;7.63;4.72;;;14.70;99.90;;;;;;5019549;28;20505;-66
2022/10/28 07:26:24;;;;;;;9.38;4.78;;;14.70;99.90;;;;;;5012727;28;20046;-66
2022/10/28 07:28:50;;;;;;;8.25;4.53;;;14.80;99.90;;;;;;5028089;28;20045;-66
2022/10/28 07:31:16;;;;;;;6.68;4.00;;;14.90;99.90;;;;;;5021246;28;20470;-67
2022/10/28 07:33:42;;;;;;;8.77;4.40;;;15.00;99.90;;;;;;5022892;28;20073;-66
2022/10/28 07:36:08;;;;;;;6.18;4.20;;;15.10;99.90;;;;;;5022105;28;20497;-66
2022/10/28 07:38:34;;;;;;;9.20;4.38;;;15.20;99.90;;;;;;5015567;28;20041;-67
2022/10/28 07:41:08;;;;;;;6.30;4.00;;;15.40;99.90;;;;;;5013502;28;20402;-66
2022/10/28 07:43:38;;;;;;;7.10;4.50;;;15.50;99.90;;;;;;5020209;28;20046;-66
2022/10/28 07:46:06;;;;;;;8.68;4.45;;;15.60;99.90;;;;;;5017604;28;20041;-66
2022/10/28 07:48:32;;;;;;;8.57;4.20;;;15.70;99.90;;;;;;5031543;28;20080;-66
2022/10/28 07:51:06;;;;;;;8.70;3.72;;;15.80;99.90;;;;;;4979107;28;20046;-66
2022/10/28 07:53:32;;;;;;;7.18;4.20;;;16.00;99.90;;;;;;5019244;28;20068;-67
2022/10/28 07:56:00;;;;;;;10.80;4.55;;;16.20;99.90;;;;;;5023218;28;20469;-67
2022/10/28 07:58:26;;;;;;;6.90;3.85;;;16.30;99.90;;;;;;5013372;28;20037;-66
2022/10/28 08:00:52;;;;;;;7.00;3.85;;;16.30;99.90;;;;;;5019688;28;20037;-67
2022/10/28 08:03:18;;;;;;;7.32;4.35;;;16.40;99.90;;;;;;5018819;28;20034;-66
2022/10/28 08:05:44;;;;;;;7.22;3.83;;;16.50;99.90;;;;;;5016219;28;20037;-66
2022/10/28 08:08:10;;;;;;;11.45;4.05;;;16.60;99.90;;;;;;5012448;28;20502;-66
2022/10/28 08:10:35;;;;;;;7.70;3.78;;;16.70;99.90;;;;;;5015388;28;20119;-66
2022/10/28 08:13:01;;;;;;;9.27;4.00;;;16.80;99.90;;;;;;5014550;28;20104;-65
2022/10/28 08:15:28;;;;;;;7.28;3.55;;;16.90;99.90;;;;;;5017775;28;20058;-66
2022/10/28 08:17:55;;;;;;;7.53;4.03;;;17.00;99.90;;;;;;5020467;28;20073;-66
2022/10/28 08:20:20;;;;;;;7.97;3.90;;;17.00;99.90;;;;;;5020767;28;20053;-66
2022/10/28 08:22:46;;;;;;;7.53;3.85;;;17.00;99.90;;;;;;5013010;28;20037;-66
2022/10/28 08:25:12;;;;;;;5.50;3.30;;;17.10;99.90;;;;;;5010677;28;20412;-66
2022/10/28 08:27:40;;;;;;;6.95;3.78;;;17.10;99.90;;;;;;5015019;28;20116;-66
2022/10/28 08:30:07;;;;;;;8.18;3.70;;;17.20;99.90;;;;;;5013863;28;20512;-67
2022/10/28 08:32:33;;;;;;;8.77;4.10;;;17.30;99.90;;;;;;5016559;28;20111;-67
2022/10/28 08:34:59;;;;;;;7.97;3.80;;;17.40;99.90;;;;;;5013595;28;20499;-67
2022/10/28 08:37:25;;;;;;;6.78;3.75;;;17.50;99.90;;;;;;5019090;28;20073;-67
2022/10/28 08:39:51;;;;;;;6.82;3.30;;;17.50;99.90;;;;;;5019662;28;20117;-67
2022/10/28 08:42:40;;;;;;;6.20;3.55;;;17.60;99.90;;;;;;5015557;28;20034;-67
2022/10/28 08:45:17;;;;;;;7.45;3.92;;;17.70;99.90;;;;;;5014627;28;20100;-67
2022/10/28 08:47:54;;;;;;;6.95;3.38;;;17.70;99.90;;;;;;5020785;28;20144;-66
2022/10/28 08:50:23;;;;;;;6.75;3.40;;;17.80;99.90;;;;;;5015871;28;20080;-66
2022/10/28 08:52:53;;;;;;;7.07;3.67;;;17.90;99.90;;;;;;5017168;28;20081;-66
2022/10/28 08:55:37;;;;;;;6.25;3.60;;;18.00;99.90;;;;;;5010409;28;20041;-66
2022/10/28 08:58:24;;;;;;;6.57;3.58;;;18.10;99.90;;;;;;5014333;28;20422;-67
2022/10/28 09:00:52;;;;;;;5.95;3.05;;;18.10;99.90;;;;;;5016202;28;20051;-67
2022/10/28 09:03:24;;;;;;;9.15;3.88;;;18.10;99.90;;;;;;5017946;28;20099;-67
2022/10/28 09:06:05;;;;;;;8.13;3.30;;;18.20;99.90;;;;;;5009300;28;20065;-67
2022/10/28 09:08:35;;;;;;;6.18;3.50;;;18.30;99.90;;;;;;5018234;28;20386;-66
2022/10/28 09:11:09;;;;;;;7.18;3.28;;;18.30;99.90;;;;;;5009647;28;20140;-66
2022/10/28 09:14:05;;;;;;;7.43;3.28;;;18.50;99.90;;;;;;5016301;28;20532;-66
2022/10/28 09:16:47;;;;;;;5.47;3.30;;;18.60;99.90;;;;;;5005252;28;20097;-66
2022/10/28 09:19:38;;;;;;;8.90;3.65;;;18.80;99.90;;;;;;5008423;28;20052;-67
2022/10/28 09:22:13;;;;;;;6.55;3.63;;;18.90;99.90;;;;;;5030020;28;20075;-67
2022/10/28 09:24:47;;;;;;;6.53;3.20;;;18.90;99.90;;;;;;5032266;28;20089;-66
2022/10/28 09:27:24;;;;;;;7.60;3.22;;;18.90;99.90;;;;;;5000398;28;20146;-67
2022/10/28 09:30:20;;;;;;;7.18;3.30;;;19.00;99.90;;;;;;5033738;28;20055;-66
2022/10/28 09:33:01;;;;;;;5.72;3.15;;;19.00;99.90;;;;;;5034441;28;20087;-66
2022/10/28 09:35:32;;;;;;;6.60;3.30;;;18.90;99.90;;;;;;5009321;28;20058;-67
2022/10/28 09:38:10;;;;;;;6.68;3.20;;;18.90;99.90;;;;;;5030275;28;20116;-66
2022/10/28 09:40:40;;;;;;;7.03;3.13;;;18.90;99.90;;;;;;5033202;28;20061;-66
2022/10/28 09:43:18;;;;;;;7.65;3.15;;;18.90;99.90;;;;;;5021350;28;20029;-67
2022/10/28 09:45:46;;;;;;;6.72;3.55;;;18.90;99.90;;;;;;5028166;28;20046;-67
2022/10/28 09:48:24;;;;;;;8.90;3.50;;;19.00;99.90;;;;;;5009469;28;20053;-67
2022/10/28 09:50:53;;;;;;;5.03;3.20;;;18.90;99.90;;;;;;5027850;28;20563;-67
2022/10/28 09:53:42;;;;;;;8.48;3.70;;;18.90;99.90;;;;;;5027942;28;20036;-67
2022/10/28 09:56:09;;;;;;;7.55;3.50;;;18.90;99.90;;;;;;5021849;28;20050;-67
2022/10/28 09:58:36;;;;;;;7.28;3.30;;;18.80;99.90;;;;;;5028027;28;20077;-67
2022/10/28 10:01:03;;;;;;;8.35;3.88;;;18.90;99.90;;;;;;5033272;28;20038;-66
2022/10/28 10:03:30;;;;;;;7.22;3.70;;;18.90;99.90;;;;;;5024120;28;20037;-67
2022/10/28 10:06:00;;;;;;;5.65;3.10;;;18.90;99.90;;;;;;5033232;28;20049;-67
2022/10/28 10:08:26;;;;;;;8.75;3.50;;;18.90;99.90;;;;;;5014044;28;20176;-67
2022/10/28 10:10:55;;;;;;;6.85;3.55;;;18.90;99.90;;;;;;5019061;28;20110;-67
2022/10/28 10:13:28;;;;;;;6.43;3.08;;;18.80;99.90;;;;;;5021741;28;20065;-67
2022/10/28 10:16:03;;;;;;;9.30;4.03;;;18.80;99.90;;;;;;5033370;28;20060;-67
2022/10/28 10:18:33;;;;;;;6.57;3.25;;;18.80;99.90;;;;;;5033082;28;20041;-67
2022/10/28 10:20:59;;;;;;;7.10;3.38;;;18.80;99.90;;;;;;5023956;28;20045;-66
2022/10/28 10:23:34;;;;;;;5.72;3.17;;;18.80;99.90;;;;;;5033618;28;20121;-66
2022/10/28 10:26:08;;;;;;;8.68;3.80;;;18.80;99.90;;;;;;5033679;28;20426;-66
2022/10/28 10:28:37;;;;;;;8.25;3.22;;;18.80;99.90;;;;;;5001736;28;20080;-66
2022/10/28 10:31:06;;;;;;;5.80;3.20;;;18.80;99.90;;;;;;5029064;28;20077;-67
2022/10/28 10:33:38;;;;;;;7.55;3.60;;;18.90;99.90;;;;;;5033137;28;20045;-67
2022/10/28 10:36:09;;;;;;;8.45;3.40;;;18.90;99.90;;;;;;5004057;28;20156;-65
2022/10/28 10:38:36;;;;;;;6.47;3.25;;;18.90;99.90;;;;;;5030130;28;20385;-65
2022/10/28 10:41:02;;;;;;;7.07;3.30;;;18.90;99.90;;;;;;5027865;28;20532;-65
2022/10/28 10:43:33;;;;;;;7.88;3.40;;;18.90;99.90;;;;;;5032539;28;20037;-67
2022/10/28 10:45:59;;;;;;;7.78;3.97;;;19.00;99.90;;;;;;5015739;28;20454;-67
2022/10/28 10:48:25;;;;;;;5.40;3.40;;;19.00;99.90;;;;;;5023284;28;20121;-66
2022/10/28 10:50:52;;;;;;;7.38;3.88;;;19.10;99.90;;;;;;5019082;28;20678;-66
2022/10/28 10:53:30;;;;;;;6.57;3.50;;;19.20;99.90;;;;;;5033100;28;20029;-66
2022/10/28 10:56:11;;;;;;;6.28;3.25;;;19.30;99.90;;;;;;5033387;28;20049;-65
2022/10/28 10:58:45;;;;;;;9.15;3.65;;;19.30;99.90;;;;;;5020976;28;20046;-65
2022/10/28 11:01:18;;;;;;;7.65;3.78;;;19.30;99.90;;;;;;5032301;28;20045;-66
2022/10/28 11:03:54;;;;;;;6.55;3.15;;;19.30;99.90;;;;;;5032633;28;20531;-65
2022/10/28 11:06:24;;;;;;;5.95;3.40;;;19.30;99.90;;;;;;5022540;28;20092;-65
2022/10/28 11:08:57;;;;;;;8.27;3.28;;;19.30;99.90;;;;;;5030468;28;20089;-65
2022/10/28 11:11:34;;;;;;;10.10;3.45;;;19.30;99.90;;;;;;5029982;28;20042;-65
2022/10/28 11:14:09;;;;;;;9.98;3.40;;;19.30;99.90;;;;;;4999413;28;20045;-66
2022/10/28 11:16:50;;;;;;;6.00;2.78;;;19.30;99.90;;;;;;5025191;28;20425;-66
2022/10/28 11:19:33;;;;;;;7.53;3.53;;;19.40;99.90;;;;;;5031737;28;20045;-66
2022/10/28 11:22:34;;;;;;;7.85;3.50;;;19.40;99.90;;;;;;5014688;28;20517;-66
2022/10/28 11:25:41;;;;;;;8.73;3.55;;;19.50;99.90;;;;;;5002538;28;20058;-67
2022/10/28 11:28:45;;;;;;;8.50;3.20;;;19.50;99.90;;;;;;5001551;28;20065;-66
2022/10/28 11:31:38;;;;;;;7.07;3.20;;;19.60;99.90;;;;;;5023602;28;20111;-67
2022/10/28 11:34:25;;;;;;;7.80;3.08;;;19.90;99.90;;;;;;5031918;28;20061;-65
2022/10/28 11:37:09;;;;;;;6.70;3.13;;;20.10;99.90;;;;;;5031489;28;20049;-65
2022/10/28 11:39:51;;;;;;;7.47;3.10;;;20.20;99.90;;;;;;5031503;28;20049;-65
2022/10/28 11:42:40;;;;;;;6.60;3.00;;;20.30;99.90;;;;;;5022106;28;20394;-66
2022/10/28 11:45:18;;;;;;;7.03;2.83;;;20.30;99.90;;;;;;4997253;28;20364;-67
2022/10/28 11:48:21;;;;;;;5.53;2.78;;;20.30;99.90;;;;;;5022363;28;20664;-66
2022/10/28 11:50:51;;;;;;;6.38;3.13;;;20.30;99.90;;;;;;5031162;28;20406;-66
2022/10/28 11:53:38;;;;;;;7.40;3.00;;;20.30;99.90;;;;;;4996289;28;20030;-65
2022/10/28 11:56:17;;;;;;;5.63;2.97;;;20.30;99.90;;;;;;5011926;28;20490;-66
2022/10/28 11:58:48;;;;;;;6.28;3.10;;;20.30;99.90;;;;;;5000624;28;20458;-66
2022/10/28 12:01:40;;;;;;;9.63;3.13;;;20.40;99.90;;;;;;5028080;28;20045;-66
2022/10/28 12:04:18;;;;;;;10.38;3.35;;;20.40;99.90;;;;;;5031768;28;20124;-65
2022/10/28 12:07:01;;;;;;;9.32;3.83;;;20.50;99.90;;;;;;5030723;28;20073;-65
2022/10/28 12:09:47;;;;;;;6.97;3.08;;;20.50;99.90;;;;;;4985580;28;20041;-65
2022/10/28 12:12:51;;;;;;;9.00;3.42;;;20.50;99.90;;;;;;5015163;28;20041;-65
2022/10/28 12:15:26;;;;;;;7.15;3.25;;;20.60;99.90;;;;;;4991859;28;20477;-67
2022/10/28 12:18:19;;;;;;;7.25;3.10;;;20.60;99.90;;;;;;5030085;28;20045;-65
2022/10/28 12:20:56;;;;;;;9.13;3.70;;;20.70;99.90;;;;;;5013280;28;20061;-67
2022/10/28 12:23:24;;;;;;;6.88;3.05;;;20.60;99.90;;;;;;5026260;28;20037;-67
2022/10/28 12:25:54;;;;;;;8.52;3.55;;;20.60;99.90;;;;;;5015528;28;20053;-67
2022/10/28 12:28:41;;;;;;;5.88;3.15;;;20.70;99.90;;;;;;4997871;28;20103;-67
2022/10/28 12:31:17;;;;;;;7.95;3.30;;;20.60;99.90;;;;;;5030557;28;20053;-67
2022/10/28 12:33:47;;;;;;;8.05;3.20;;;20.70;99.90;;;;;;5030250;28;20076;-66
2022/10/28 12:36:28;;;;;;;7.80;3.08;;;20.70;99.90;;;;;;5030089;28;20061;-67
2022/10/28 12:39:11;;;;;;;8.05;3.50;;;20.70;99.90;;;;;;5027875;28;20579;-66
2022/10/28 12:42:02;;;;;;;6.80;3.00;;;20.80;99.90;;;;;;5016521;28;20056;-66
2022/10/28 12:44:28;;;;;;;7.35;3.55;;;20.80;99.90;;;;;;5030601;28;20077;-66
2022/10/28 12:47:08;;;;;;;6.63;3.15;;;20.70;99.90;;;;;;5023981;28;20505;-65
2022/10/28 12:49:53;;;;;;;10.35;3.30;;;20.70;99.90;;;;;;5029372;28;20375;-66
2022/10/28 12:52:29;;;;;;;7.78;3.15;;;20.80;99.90;;;;;;5030089;28;20045;-66
2022/10/28 12:55:01;;;;;;;7.07;3.22;;;20.80;99.90;;;;;;5030764;28;20049;-67
2022/10/28 12:57:29;;;;;;;7.88;3.10;;;20.80;99.90;;;;;;5029803;28;20057;-65
2022/10/28 13:00:18;;;;;;;8.73;3.40;;;20.80;99.90;;;;;;5014825;28;20053;-65
2022/10/28 13:03:03;;;;;;;7.43;3.00;;;20.80;99.90;;;;;;4991868;28;20502;-65
2022/10/28 13:05:43;;;;;;;8.05;3.33;;;20.80;99.90;;;;;;5010006;28;20479;-64